Time;durP1;ratioP1;P1;durP2;ratioP2;P2;SDS_P1;SDS_P2;PMS_P1;PMS_P2;Temp;Humidity;BMP_temperature;BMP_pressure;BME280_temperature;BME280_humidity;BME280_pressure;Samples;Min_cycle;Max_cycle;Signal;HPM_P1;HPM_P2
2023/10/08 00:00:43;;;;;;;3.88;2.80;;;;;;;22.80;53.16;100844.84;10367367;28;96869;-76
2023/10/08 00:05:49;;;;;;;3.65;2.88;;;;;;;22.94;52.66;100841.91;10370326;28;96862;-76
2023/10/08 00:10:53;;;;;;;9.02;4.30;;;;;;;23.41;50.37;100845.06;10370330;28;96839;-77
2023/10/08 00:15:57;;;;;;;6.50;4.47;;;;;;;23.44;50.18;100849.34;10366466;28;96888;-77
2023/10/08 00:21:16;;;;;;;7.22;4.70;;;;;;;23.58;49.42;100843.66;10361721;28;98432;-76
2023/10/08 00:26:27;;;;;;;6.45;4.20;;;;;;;23.72;48.82;100837.97;10371013;28;99152;-77
2023/10/08 00:31:37;;;;;;;5.72;3.70;;;;;;;23.75;48.60;100834.19;10346256;28;99099;-76
2023/10/08 00:36:43;;;;;;;5.82;2.97;;;;;;;23.77;48.49;100837.59;10352467;28;98492;-76
2023/10/08 00:41:47;;;;;;;5.53;3.28;;;;;;;23.80;48.15;100829.28;10339219;28;96953;-76
2023/10/08 00:46:51;;;;;;;4.72;3.42;;;;;;;23.63;48.59;100825.34;10354227;28;96770;-76
2023/10/08 00:52:18;;;;;;;;;;;;;;;23.61;47.92;100819.25;10343547;28;96791;-77
2023/10/08 00:57:26;;;;;;;4.53;3.10;;;;;;;23.56;48.05;100816.09;10356398;28;99282;-76
2023/10/08 01:02:44;;;;;;;3.45;2.58;;;;;;;23.24;49.79;100820.56;10358051;28;96789;-76
2023/10/08 01:07:51;;;;;;;4.65;3.17;;;;;;;22.84;52.21;100816.75;10367782;28;96778;-78
2023/10/08 01:13:05;;;;;;;4.20;2.78;;;;;;;22.83;52.22;100815.06;10376675;28;96786;-76
2023/10/08 01:18:14;;;;;;;5.50;3.15;;;;;;;22.79;51.53;100818.97;10386264;28;96861;-76
2023/10/08 01:23:22;;;;;;;3.88;2.67;;;;;;;22.57;51.60;100823.34;10374382;28;96753;-76
2023/10/08 01:28:28;;;;;;;6.97;2.78;;;;;;;22.62;51.48;100809.56;10345104;28;98101;-76
2023/10/08 01:33:37;;;;;;;4.38;2.70;;;;;;;22.48;51.57;100821.41;10353893;28;96565;-76
2023/10/08 01:38:42;;;;;;;3.40;2.42;;;;;;;22.47;51.89;100814.31;10364054;28;96779;-76
2023/10/08 01:43:46;;;;;;;4.03;2.30;;;;;;;22.73;50.52;100808.72;10361258;28;97859;-76
2023/10/08 01:49:06;;;;;;;3.42;2.50;;;;;;;22.71;50.17;100805.28;10360142;28;97507;-76
2023/10/08 01:54:11;;;;;;;3.42;2.65;;;;;;;22.59;50.77;100807.97;10359824;28;96872;-77
2023/10/08 01:59:16;;;;;;;2.97;2.17;;;;;;;22.60;50.15;100806.16;10349685;28;96812;-77
2023/10/08 02:04:21;;;;;;;4.38;2.33;;;;;;;22.64;49.79;100811.13;10372189;28;97194;-77
2023/10/08 02:09:26;;;;;;;4.28;2.38;;;;;;;22.47;50.10;100808.13;10383086;28;98842;-77
2023/10/08 02:14:31;;;;;;;4.30;2.33;;;;;;;22.53;50.02;100815.66;10382779;28;96794;-77
2023/10/08 02:19:36;;;;;;;3.58;2.53;;;;;;;22.55;49.74;100803.00;10381696;28;97161;-77
2023/10/08 02:24:42;;;;;;;4.93;2.47;;;;;;;22.53;49.73;100808.50;10382598;28;96767;-77
2023/10/08 02:29:46;;;;;;;3.85;2.60;;;;;;;22.49;49.60;100807.00;10383445;28;97251;-76
2023/10/08 02:34:50;;;;;;;4.20;2.43;;;;;;;22.54;49.31;100794.09;10383727;28;97059;-77
2023/10/08 02:39:57;;;;;;;4.13;2.58;;;;;;;22.37;49.57;100816.03;10362602;28;97015;-77
2023/10/08 02:45:02;;;;;;;4.13;2.63;;;;;;;22.19;50.08;100809.47;10312569;22;97964;-76
2023/10/08 02:50:08;;;;;;;2.95;2.20;;;;;;;22.07;50.50;100806.88;10299968;28;97570;-77
2023/10/08 02:55:24;;;;;;;4.60;2.88;;;;;;;22.25;49.91;100811.66;10325144;28;96855;-76
2023/10/08 03:00:29;;;;;;;4.43;2.25;;;;;;;22.24;50.04;100806.41;10327521;28;96949;-77
2023/10/08 03:05:35;;;;;;;3.47;2.50;;;;;;;22.21;49.74;100804.81;10299627;28;97481;-76
2023/10/08 03:10:41;;;;;;;3.42;2.60;;;;;;;22.24;49.76;100809.09;10311703;28;96747;-76
2023/10/08 03:15:57;;;;;;;3.38;2.15;;;;;;;22.08;50.22;100820.16;10339758;28;96765;-77
2023/10/08 03:21:03;;;;;;;4.68;2.60;;;;;;;22.36;48.99;100810.81;10315223;28;96864;-77
2023/10/08 03:26:10;;;;;;;3.65;2.28;;;;;;;22.26;49.85;100818.72;10297801;28;96797;-77
2023/10/08 03:31:17;;;;;;;4.47;2.85;;;;;;;22.18;50.56;100813.09;10278021;28;96978;-77
2023/10/08 03:36:22;;;;;;;3.20;2.20;;;;;;;22.16;50.61;100830.31;10299036;28;96770;-77
2023/10/08 03:41:29;;;;;;;3.97;2.70;;;;;;;22.14;50.52;100822.34;10298229;28;96645;-77
2023/10/08 03:46:39;;;;;;;4.10;2.25;;;;;;;22.08;50.64;100841.63;10325224;28;97060;-76
2023/10/08 03:51:42;;;;;;;3.33;2.22;;;;;;;21.92;51.01;100840.19;10340125;28;96680;-76
2023/10/08 03:56:51;;;;;;;3.25;2.50;;;;;;;21.92;50.73;100845.53;10339193;28;96845;-76
2023/10/08 04:01:54;;;;;;;3.75;2.22;;;;;;;21.54;52.28;100839.59;10338219;28;96860;-76
2023/10/08 04:07:24;;;;;;;4.80;2.33;;;;;;;21.63;52.15;100842.44;10338344;28;96798;-77
2023/10/08 04:12:22;;;;;;;4.63;2.70;;;;;;;21.66;52.03;100846.72;10338287;28;96818;-76
2023/10/08 04:17:25;;;;;;;2.92;2.40;;;;;;;21.44;53.07;100853.69;10332551;28;96677;-76
2023/10/08 04:22:29;;;;;;;3.45;2.28;;;;;;;21.21;54.05;100859.88;10297269;28;96879;-77
2023/10/08 04:27:35;;;;;;;3.40;2.42;;;;;;;21.02;54.59;100853.28;10296207;28;96790;-76
2023/10/08 04:32:39;;;;;;;3.20;2.42;;;;;;;20.84;55.72;100865.31;10297068;28;96618;-76
2023/10/08 04:37:43;;;;;;;4.32;2.80;;;;;;;20.90;55.71;100867.53;10301903;28;97013;-76
2023/10/08 04:42:48;;;;;;;3.88;2.42;;;;;;;20.89;55.51;100874.75;10297229;28;96887;-77
2023/10/08 04:47:51;;;;;;;4.43;2.67;;;;;;;20.81;56.22;100878.94;10297174;28;96930;-76
2023/10/08 04:52:58;;;;;;;4.35;2.70;;;;;;;20.68;56.81;100884.28;10297341;28;96789;-77
2023/10/08 04:58:19;;;;;;;3.88;2.47;;;;;;;20.60;56.99;100888.47;10269465;28;96850;-77
2023/10/08 05:03:23;;;;;;;3.63;2.45;;;;;;;20.47;57.31;100892.97;10298836;28;97245;-76
2023/10/08 05:08:33;;;;;;;5.05;2.97;;;;;;;20.42;57.32;100884.41;10302668;28;97112;-77
2023/10/08 05:13:55;;;;;;;5.90;2.63;;;;;;;20.38;56.94;100898.97;10281291;28;96705;-77
2023/10/08 05:19:24;;;;;;;4.97;2.78;;;;;;;20.32;57.29;100900.25;10284530;28;96763;-76
2023/10/08 05:24:37;;;;;;;4.03;2.63;;;;;;;19.98;58.80;100907.00;10295044;28;96628;-76
2023/10/08 05:40:54;;;;;;;3.67;2.58;;;;;;;19.76;59.68;100917.44;10268358;28;97031;-76
2023/10/08 05:46:35;;;;;;;4.63;2.80;;;;;;;20.08;57.09;100929.47;10292973;28;98003;-76
2023/10/08 05:51:34;;;;;;;4.72;2.33;;;;;;;19.78;59.40;100923.53;10301132;28;96766;-76
2023/10/08 05:57:04;;;;;;;3.97;2.60;;;;;;;20.17;56.19;100931.53;10301921;28;96756;-77
2023/10/08 06:02:27;;;;;;;5.72;2.40;;;;;;;20.42;54.44;100921.84;10303712;28;96800;-77
2023/10/08 06:07:47;;;;;;;3.55;2.33;;;;;;;20.59;53.49;100943.78;10301096;28;96833;-77
2023/10/08 06:13:01;;;;;;;3.85;2.53;;;;;;;20.55;53.47;100946.78;10299070;28;97342;-77
2023/10/08 06:18:07;;;;;;;4.40;2.57;;;;;;;20.62;52.94;100954.25;10298453;28;98933;-76
2023/10/08 06:23:13;;;;;;;3.78;2.30;;;;;;;20.71;52.45;100958.09;10300327;28;96878;-77
2023/10/08 06:28:19;;;;;;;3.95;2.40;;;;;;;20.68;52.34;100969.03;10300576;28;96755;-77
2023/10/08 06:33:30;;;;;;;3.35;2.00;;;;;;;20.67;52.24;100976.19;10300504;28;97015;-78
2023/10/08 06:38:35;;;;;;;3.58;2.58;;;;;;;20.59;52.62;100980.34;10300026;28;96831;-78
2023/10/08 06:43:38;;;;;;;3.87;2.50;;;;;;;20.60;52.18;100980.25;10297508;28;101010;-77
2023/10/08 06:48:43;;;;;;;4.07;2.50;;;;;;;20.59;51.81;100980.34;10299122;28;98754;-78
2023/10/08 06:53:49;;;;;;;2.95;2.35;;;;;;;20.59;51.69;100980.34;10299770;28;97524;-76
2023/10/08 06:58:53;;;;;;;3.80;2.50;;;;;;;20.60;51.74;100992.78;10297922;28;96843;-78
2023/10/08 07:04:03;;;;;;;3.33;2.55;;;;;;;20.56;51.81;101002.81;10304160;28;96810;-78
2023/10/08 07:09:22;;;;;;;4.25;2.22;;;;;;;20.54;51.77;101014.56;10287046;28;97370;-78
2023/10/08 07:14:26;;;;;;;3.22;2.10;;;;;;;20.61;51.56;101016.75;10298265;28;96904;-78
2023/10/08 07:19:37;;;;;;;3.85;2.35;;;;;;;20.65;51.70;101023.59;10296568;28;97700;-78
2023/10/08 07:24:45;;;;;;;2.85;2.33;;;;;;;20.85;51.16;101028.41;10294301;28;96955;-78
2023/10/08 07:29:48;;;;;;;7.80;2.30;;;;;;;21.73;49.42;101030.13;10297858;28;96850;-78
2023/10/08 07:35:04;;;;;;;2.75;2.10;;;;;;;22.47;47.75;101044.19;10296903;28;97152;-78
2023/10/08 07:40:11;;;;;;;2.92;2.22;;;;;;;23.17;46.68;101044.94;10297925;28;96876;-78
2023/10/08 07:45:17;;;;;;;3.00;2.30;;;;;;;24.03;45.25;101052.19;10296336;28;97993;-77
2023/10/08 07:50:24;;;;;;;3.53;2.20;;;;;;;24.67;42.63;101061.16;10298026;28;96863;-76
2023/10/08 07:55:27;;;;;;;3.03;2.13;;;;;;;25.48;41.93;101063.91;10297236;28;96842;-75
2023/10/08 08:00:38;;;;;;;5.33;2.47;;;;;;;26.10;41.51;101075.31;10294367;28;96909;-76
2023/10/08 08:05:44;;;;;;;4.63;2.60;;;;;;;26.88;39.80;101089.56;10295203;28;97139;-77
2023/10/08 08:10:47;;;;;;;2.67;2.10;;;;;;;27.49;39.23;101091.84;10285159;28;97365;-78
2023/10/08 08:15:50;;;;;;;3.35;2.58;;;;;;;27.66;38.37;101099.16;10293048;28;97617;-77
2023/10/08 08:21:01;;;;;;;3.13;1.88;;;;;;;27.53;37.18;101104.91;10291385;28;96989;-78
2023/10/08 08:26:11;;;;;;;2.80;2.30;;;;;;;28.07;36.72;101107.66;10288681;28;97129;-75
2023/10/08 08:31:14;;;;;;;3.97;2.47;;;;;;;28.28;36.42;101104.69;10294980;28;96935;-76
2023/10/08 08:36:19;;;;;;;;;;;;;;;28.90;34.25;101114.59;10294331;28;98847;-77
2023/10/08 08:41:23;;;;;;;3.75;2.20;;;;;;;29.48;34.43;101106.72;10289801;28;97427;-77
2023/10/08 08:46:31;;;;;;;3.15;1.92;;;;;;;29.90;33.05;101107.66;10294457;28;98863;-77
2023/10/08 08:51:37;;;;;;;3.38;2.20;;;;;;;30.21;33.04;101106.91;10294558;28;97693;-77
2023/10/08 08:56:44;;;;;;;3.20;2.20;;;;;;;28.44;34.67;101113.00;10293301;28;97354;-77
2023/10/08 09:01:50;;;;;;;2.72;2.08;;;;;;;27.20;36.27;101110.03;10289203;28;96831;-76
2023/10/08 09:06:55;;;;;;;4.00;3.03;;;;;;;26.97;36.92;101115.69;10293808;28;96930;-77
2023/10/08 09:11:59;;;;;;;4.30;2.92;;;;;;;27.92;35.81;101122.72;10292455;28;97613;-77
2023/10/08 09:17:04;;;;;;;3.38;2.53;;;;;;;29.66;33.38;101121.94;10293431;28;96783;-77
2023/10/08 09:22:11;;;;;;;3.10;2.53;;;;;;;30.61;31.83;101118.88;10296504;28;97192;-77
2023/10/08 09:27:15;;;;;;;3.63;2.03;;;;;;;31.10;30.47;101113.31;10299203;28;96714;-77
2023/10/08 09:32:23;;;;;;;3.42;2.33;;;;;;;31.62;29.43;101115.59;10299927;28;97438;-79
2023/10/08 09:37:29;;;;;;;2.60;2.00;;;;;;;31.65;28.68;101118.81;10297173;28;96719;-78
2023/10/08 09:42:34;;;;;;;2.40;1.90;;;;;;;31.81;28.12;101117.94;10301801;28;96889;-74
2023/10/08 09:47:40;;;;;;;3.10;2.20;;;;;;;31.46;28.01;101119.22;10299913;28;98895;-75
2023/10/08 09:52:57;;;;;;;4.20;2.30;;;;;;;32.29;27.93;101113.09;10300552;28;96762;-75
2023/10/08 09:58:01;;;;;;;2.65;2.10;;;;;;;32.80;27.34;101113.44;10300098;28;97336;-74
2023/10/08 10:03:05;;;;;;;3.22;2.17;;;;;;;33.25;26.25;101110.69;10300308;28;99163;-73
2023/10/08 10:08:10;;;;;;;2.85;1.83;;;;;;;33.17;25.83;101100.72;10299867;28;96704;-73
2023/10/08 10:13:14;;;;;;;2.90;2.00;;;;;;;34.94;24.85;101106.56;10300837;28;96810;-74
2023/10/08 10:18:28;;;;;;;3.53;2.20;;;;;;;34.58;24.74;101101.16;10299925;28;96867;-74
2023/10/08 10:23:42;;;;;;;2.97;2.20;;;;;;;34.45;23.75;101100.19;10299579;28;96961;-74
2023/10/08 10:28:46;;;;;;;4.18;2.20;;;;;;;35.23;23.72;101094.59;10300430;28;96778;-74
2023/10/08 10:33:49;;;;;;;2.30;1.80;;;;;;;34.91;23.72;101093.25;10301174;28;97529;-75
2023/10/08 10:38:54;;;;;;;3.03;1.90;;;;;;;35.16;23.32;101088.22;10300703;28;97157;-75
2023/10/08 10:44:08;;;;;;;2.70;1.83;;;;;;;35.74;23.21;101082.28;10298735;28;97016;-75
2023/10/08 10:49:21;;;;;;;2.72;2.10;;;;;;;35.18;22.96;101076.03;10301183;28;97112;-75
2023/10/08 10:54:35;;;;;;;3.10;2.28;;;;;;;35.31;22.74;101073.41;10295756;28;98956;-75
2023/10/08 10:59:39;;;;;;;3.25;1.92;;;;;;;36.18;21.62;101073.66;10298121;28;96889;-75
2023/10/08 11:04:48;;;;;;;2.90;2.00;;;;;;;36.34;21.49;101070.53;10298532;28;96827;-74
2023/10/08 11:09:55;;;;;;;2.35;1.80;;;;;;;36.15;21.50;101066.72;10296811;28;97566;-75
2023/10/08 11:14:58;;;;;;;2.78;2.00;;;;;;;35.35;21.51;101060.16;10298343;28;96803;-74
2023/10/08 11:20:07;;;;;;;4.63;2.30;;;;;;;34.88;22.62;101066.31;10297565;28;96747;-74
2023/10/08 11:25:27;;;;;;;3.60;2.25;;;;;;;35.06;22.58;101063.13;10298554;28;96795;-74
2023/10/08 11:30:35;;;;;;;3.10;2.08;;;;;;;35.04;22.17;101059.72;10296938;28;96996;-74
2023/10/08 11:35:51;;;;;;;3.70;2.05;;;;;;;36.28;21.69;101063.97;10295679;28;97258;-75
2023/10/08 11:40:57;;;;;;;2.33;1.90;;;;;;;36.57;21.35;101060.91;10293370;28;96892;-77
2023/10/08 11:46:03;;;;;;;2.83;2.00;;;;;;;37.02;21.53;101061.16;10295916;28;96798;-75
2023/10/08 11:51:11;;;;;;;3.33;1.88;;;;;;;37.30;20.78;101056.22;10288492;28;98480;-76
2023/10/08 11:56:18;;;;;;;7.50;2.35;;;;;;;37.50;20.39;101051.59;10293122;28;98853;-76
2023/10/08 12:01:21;;;;;;;3.22;2.10;;;;;;;37.59;20.60;101033.81;10302838;28;96800;-78
2023/10/08 12:06:25;;;;;;;2.25;2.05;;;;;;;37.27;20.76;101038.31;10295174;28;99145;-74
2023/10/08 12:11:32;;;;;;;3.38;2.25;;;;;;;37.39;20.58;101028.38;10294473;28;98072;-72
2023/10/08 12:16:36;;;;;;;4.00;2.03;;;;;;;37.40;20.76;101020.97;10294273;28;96887;-78
2023/10/08 12:21:40;;;;;;;2.60;2.03;;;;;;;37.13;20.51;101014.66;10294365;28;97270;-84
2023/10/08 12:26:46;;;;;;;3.30;2.08;;;;;;;37.33;20.83;101012.72;10294512;28;96900;-78
2023/10/08 12:31:53;;;;;;;3.08;2.38;;;;;;;37.31;20.51;100992.88;10289834;28;97058;-77
2023/10/08 12:37:02;;;;;;;2.63;2.00;;;;;;;37.40;20.59;100994.34;10291757;28;98624;-82
2023/10/08 12:42:07;;;;;;;4.03;2.30;;;;;;;37.41;20.44;100985.06;10292011;28;97446;-81
2023/10/08 12:47:14;;;;;;;3.10;2.03;;;;;;;37.93;20.88;100980.41;10294455;28;97265;-81
2023/10/08 12:52:23;;;;;;;5.25;2.42;;;;;;;38.42;19.25;100975.81;10293649;28;97023;-81
2023/10/08 12:57:55;;;;;;;2.37;1.80;;;;;;;38.12;20.28;100962.94;10297675;28;96700;-81
2023/10/08 13:03:15;;;;;;;3.03;2.00;;;;;;;38.23;19.76;100962.22;10300542;28;96747;-81
2023/10/08 13:08:49;;;;;;;2.43;1.93;;;;;;;38.34;19.79;100953.25;10301067;28;97336;-81
2023/10/08 13:13:59;;;;;;;3.10;2.45;;;;;;;38.13;20.41;100940.69;10300201;28;97183;-81
2023/10/08 13:19:36;;;;;;;;;;;;;;;;;;;;;
2023/10/08 13:24:53;;;;;;;2.78;1.63;;;;;;;38.18;19.49;100934.56;10300546;28;97364;-82
2023/10/08 13:30:05;;;;;;;3.38;1.98;;;;;;;38.13;19.73;100924.22;10299687;28;96878;-81
2023/10/08 13:35:35;;;;;;;2.63;2.08;;;;;;;39.03;18.59;100926.34;10298130;28;97273;-81
2023/10/08 13:41:01;;;;;;;2.80;1.83;;;;;;;39.42;18.14;100919.56;10299320;28;96747;-81
2023/10/08 13:46:51;;;;;;;2.45;1.95;;;;;;;39.77;18.05;100904.06;10299458;28;96778;-81
2023/10/08 13:52:23;;;;;;;3.17;2.08;;;;;;;39.59;18.66;100904.06;10298670;28;96722;-81
2023/10/08 13:57:59;;;;;;;;;;;;;;;;;;;;;
2023/10/08 14:03:21;;;;;;;6.30;2.00;;;;;;;40.16;18.54;100889.66;10299207;28;96675;-81
2023/10/08 14:08:43;;;;;;;;;;;;;;;;;;;;;
2023/10/08 14:14:16;;;;;;;2.00;1.75;;;;;;;40.80;17.79;100877.69;10299244;28;96773;-81
2023/10/08 14:19:38;;;;;;;;;;;;;;;;;;;;;
2023/10/08 14:24:57;;;;;;;;;;;;;;;;;;;;;
2023/10/08 14:30:56;;;;;;;2.58;1.98;;;;;;;40.71;17.58;100857.03;10187232;28;97034;-81
2023/10/08 14:48:22;;;;;;;3.00;1.95;;;;;;;40.47;18.12;100836.06;10312257;28;97341;-81
2023/10/08 14:54:00;;;;;;;5.57;2.45;;;;;;;40.52;18.12;100842.56;10335784;28;97276;-81
2023/10/08 14:59:43;;;;;;;2.33;1.77;;;;;;;40.43;17.91;100840.38;10337242;28;96733;-81
2023/10/08 15:05:17;;;;;;;2.78;1.90;;;;;;;40.40;18.44;100843.59;10336884;28;96882;-81
2023/10/08 15:15:55;;;;;;;2.42;1.75;;;;;;;39.89;19.11;100823.03;10253584;28;96890;-81
2023/10/08 15:20:59;;;;;;;2.95;2.08;;;;;;;39.03;20.03;100824.47;10254754;28;96740;-81
2023/10/08 15:26:07;;;;;;;3.05;2.03;;;;;;;38.69;20.64;100828.69;10254700;28;97421;-81
2023/10/08 15:31:13;;;;;;;2.70;1.50;;;;;;;38.12;21.46;100830.94;10255520;28;97060;-81
2023/10/08 15:36:18;;;;;;;3.53;1.73;;;;;;;37.89;21.18;100825.22;10255181;28;97045;-81
2023/10/08 15:41:23;;;;;;;3.58;1.92;;;;;;;37.57;21.09;100830.72;10255103;28;97089;-81
2023/10/08 15:46:28;;;;;;;3.70;2.40;;;;;;;37.08;21.84;100821.47;10254982;28;97303;-81
2023/10/08 15:51:32;;;;;;;2.95;1.88;;;;;;;36.69;23.03;100816.94;10254566;28;96902;-81
2023/10/08 15:56:35;;;;;;;3.13;1.90;;;;;;;36.28;23.52;100819.13;10255128;28;97118;-81
2023/10/08 16:01:41;;;;;;;4.20;2.10;;;;;;;36.03;23.77;100818.94;10254927;28;96718;-81
2023/10/08 16:06:49;;;;;;;2.95;2.20;;;;;;;35.22;24.72;100825.53;10254091;28;96667;-81
2023/10/08 16:11:52;;;;;;;2.47;1.80;;;;;;;34.62;25.71;100822.72;10254618;28;97534;-80
2023/10/08 16:16:57;;;;;;;3.08;2.15;;;;;;;34.29;25.50;100827.94;10252964;28;97505;-81
2023/10/08 16:22:01;;;;;;;2.97;2.17;;;;;;;33.90;26.38;100818.56;10253671;28;97109;-80
2023/10/08 16:27:04;;;;;;;3.75;2.25;;;;;;;33.63;26.70;100822.94;10253684;28;96999;-80
2023/10/08 16:32:09;;;;;;;3.20;2.22;;;;;;;33.39;27.11;100828.75;10253200;28;97090;-80
2023/10/08 16:37:21;;;;;;;3.58;2.40;;;;;;;33.19;27.73;100833.16;10253023;28;96701;-80
2023/10/08 16:42:26;;;;;;;4.40;2.33;;;;;;;33.01;28.45;100830.84;10252932;28;97233;-80
2023/10/08 16:47:34;;;;;;;3.05;2.20;;;;;;;32.81;28.91;100831.59;10253610;28;97446;-80
2023/10/08 16:52:37;;;;;;;3.05;2.03;;;;;;;32.62;29.67;100832.16;10253302;28;96817;-80
2023/10/08 16:57:41;;;;;;;2.55;2.03;;;;;;;32.28;30.43;100835.41;10252731;28;97103;-80
2023/10/08 17:02:45;;;;;;;3.40;2.10;;;;;;;32.13;31.30;100840.84;10253011;28;97309;-80
2023/10/08 17:07:49;;;;;;;2.38;1.80;;;;;;;32.10;31.47;100848.53;10251535;28;96747;-80
2023/10/08 17:12:52;;;;;;;2.78;2.00;;;;;;;31.91;32.24;100847.16;10252063;28;96752;-80
2023/10/08 17:17:58;;;;;;;;;;;;;;;31.74;33.94;100861.88;10236720;28;96728;-80
2023/10/08 17:23:05;;;;;;;2.10;1.85;;;;;;;31.46;33.75;100863.44;10212543;28;97244;-80
2023/10/08 17:28:11;;;;;;;2.80;2.00;;;;;;;31.25;34.84;100864.09;10211569;28;96863;-80
2023/10/08 17:33:19;;;;;;;4.57;2.58;;;;;;;30.84;35.88;100876.16;10211472;28;97081;-80
2023/10/08 17:38:22;;;;;;;3.75;2.10;;;;;;;30.56;36.35;100882.16;10212313;28;97661;-80
2023/10/08 17:43:28;;;;;;;3.30;1.77;;;;;;;30.30;36.41;100892.41;10214434;28;97121;-80
2023/10/08 17:48:36;;;;;;;4.32;2.25;;;;;;;29.98;37.13;100896.78;10218576;28;96806;-79
2023/10/08 17:53:40;;;;;;;3.35;2.35;;;;;;;29.65;37.91;100907.78;10218497;28;97125;-80
2023/10/08 17:58:46;;;;;;;4.07;2.17;;;;;;;29.37;38.13;100914.44;10216774;28;97085;-80
2023/10/08 18:03:50;;;;;;;3.00;2.30;;;;;;;29.16;38.71;100920.31;10217627;28;96778;-80
2023/10/08 18:08:54;;;;;;;3.65;2.30;;;;;;;28.95;38.75;100926.16;10217465;28;96895;-79
2023/10/08 18:14:00;;;;;;;3.33;2.28;;;;;;;28.78;39.10;100931.59;10245499;28;97323;-80
2023/10/08 18:19:10;;;;;;;3.33;2.20;;;;;;;28.63;39.50;100941.34;10257628;28;97284;-79
2023/10/08 18:24:16;;;;;;;3.92;2.50;;;;;;;28.40;39.99;100941.00;10257244;28;96666;-80
2023/10/08 18:29:19;;;;;;;4.80;2.60;;;;;;;28.28;40.26;100955.78;10258225;28;96850;-80
2023/10/08 18:34:24;;;;;;;3.83;2.67;;;;;;;28.07;40.53;100956.09;10257708;28;97395;-79
2023/10/08 18:39:27;;;;;;;4.95;2.80;;;;;;;27.99;41.27;100961.47;10257299;28;96994;-79
2023/10/08 18:44:32;;;;;;;4.43;2.38;;;;;;;27.94;41.03;100973.75;10257148;28;96740;-80
2023/10/08 18:49:38;;;;;;;2.58;2.20;;;;;;;27.65;41.82;100968.50;10255632;28;96610;-79
2023/10/08 18:54:47;;;;;;;3.63;2.60;;;;;;;27.49;41.89;100981.84;10256657;28;97139;-79
2023/10/08 18:59:50;;;;;;;4.00;2.70;;;;;;;27.25;42.54;100978.00;10256311;28;96813;-79
2023/10/08 19:04:57;;;;;;;4.15;2.75;;;;;;;27.08;43.27;100984.19;10256407;28;96976;-79
2023/10/08 19:10:03;;;;;;;4.53;2.70;;;;;;;27.12;43.19;100989.13;10255633;28;97276;-80
2023/10/08 19:15:13;;;;;;;4.20;2.60;;;;;;;26.86;43.96;100999.72;10255376;28;96722;-79
2023/10/08 19:20:19;;;;;;;4.00;2.78;;;;;;;27.08;43.21;101003.09;10255366;28;97543;-79
2023/10/08 19:25:24;;;;;;;4.45;2.58;;;;;;;26.65;44.49;101011.69;10256220;28;97447;-79
2023/10/08 19:30:27;;;;;;;4.72;2.75;;;;;;;26.48;44.87;101017.81;10255226;28;96926;-79
2023/10/08 19:35:33;;;;;;;4.70;3.20;;;;;;;26.24;45.65;101020.94;10255460;28;96856;-79
2023/10/08 19:40:37;;;;;;;4.03;3.03;;;;;;;26.06;46.43;101032.53;10254007;28;96837;-80
2023/10/08 19:45:42;;;;;;;;;;;;;;;26.03;47.01;101022.91;10255400;28;96746;-80
2023/10/08 19:50:51;;;;;;;4.70;2.78;;;;;;;26.13;45.96;101034.56;10254740;28;96621;-79
2023/10/08 19:55:54;;;;;;;5.10;2.95;;;;;;;25.81;46.86;101033.97;10255114;28;96731;-79
2023/10/08 20:00:57;;;;;;;5.20;3.33;;;;;;;25.66;47.33;101035.28;10254151;28;97171;-79
2023/10/08 20:06:04;;;;;;;4.80;2.97;;;;;;;25.47;47.75;101041.47;10253521;28;97407;-79
2023/10/08 20:11:13;;;;;;;3.25;2.70;;;;;;;25.56;47.51;101040.66;10253929;28;97381;-79
2023/10/08 20:16:19;;;;;;;4.28;2.85;;;;;;;25.45;48.04;101048.00;10254624;28;96700;-79
2023/10/08 20:21:26;;;;;;;4.32;2.83;;;;;;;25.38;48.54;101049.53;10253650;28;97277;-79
2023/10/08 20:26:30;;;;;;;4.25;2.60;;;;;;;25.18;48.66;101050.41;10254181;28;96714;-79
2023/10/08 20:31:35;;;;;;;4.35;2.97;;;;;;;25.34;48.31;101057.03;10252055;28;96700;-79
2023/10/08 20:36:41;;;;;;;6.13;3.50;;;;;;;25.15;48.85;101062.34;10253633;28;96956;-79
2023/10/08 20:41:54;;;;;;;4.75;2.83;;;;;;;25.14;49.23;101060.59;10240081;28;97473;-79
2023/10/08 20:46:58;;;;;;;4.28;2.92;;;;;;;24.95;49.71;101076.63;10245335;28;97069;-79
2023/10/08 20:52:03;;;;;;;5.68;3.30;;;;;;;24.94;49.96;101074.06;10252816;28;96827;-80
2023/10/08 20:57:07;;;;;;;5.82;3.30;;;;;;;25.08;49.46;101076.47;10253099;28;97148;-79
2023/10/08 21:02:13;;;;;;;4.47;3.03;;;;;;;25.31;48.42;101072.63;10253046;28;97282;-79
2023/10/08 21:07:17;;;;;;;3.83;2.88;;;;;;;25.21;48.91;101079.81;10253392;28;96795;-79
2023/10/08 21:12:22;;;;;;;4.05;2.63;;;;;;;24.88;50.03;101080.81;10252491;28;97050;-79
2023/10/08 21:17:26;;;;;;;4.55;3.25;;;;;;;24.88;50.21;101080.00;10255774;28;97176;-79
2023/10/08 21:22:30;;;;;;;3.97;2.93;;;;;;;24.69;50.67;101078.00;10258146;28;96839;-80
2023/10/08 21:27:34;;;;;;;4.03;3.13;;;;;;;24.50;51.24;101094.84;10259260;28;97205;-79
2023/10/08 21:32:45;;;;;;;5.07;3.28;;;;;;;24.54;51.14;101085.56;10259485;28;97349;-79
2023/10/08 21:37:51;;;;;;;4.97;3.10;;;;;;;24.26;51.98;101088.81;10259541;28;97668;-80
2023/10/08 21:42:57;;;;;;;4.25;3.20;;;;;;;24.10;52.51;101096.41;10258331;28;96856;-80
2023/10/08 21:48:00;;;;;;;4.22;3.47;;;;;;;23.87;53.93;101088.53;10258704;28;96912;-80
2023/10/08 21:53:07;;;;;;;5.07;3.60;;;;;;;23.82;54.02;101086.22;10258790;28;97282;-79
2023/10/08 21:58:11;;;;;;;5.38;3.60;;;;;;;23.71;54.26;101083.56;10258770;28;96724;-79
2023/10/08 22:03:18;;;;;;;6.15;3.67;;;;;;;23.62;54.71;101081.59;10257715;28;96644;-80
2023/10/08 22:08:25;;;;;;;3.90;2.92;;;;;;;23.45;55.30;101090.13;10258410;28;96996;-80
2023/10/08 22:13:30;;;;;;;5.13;3.75;;;;;;;23.48;55.43;101090.72;10256234;28;97620;-79
2023/10/08 22:18:39;;;;;;;5.68;3.58;;;;;;;23.39;55.80;101098.69;10257529;28;96801;-79
2023/10/08 22:23:46;;;;;;;4.75;3.42;;;;;;;23.36;55.84;101093.53;10257427;28;97312;-79
2023/10/08 22:29:05;;;;;;;6.35;3.53;;;;;;;23.16;56.50;101096.94;10257217;28;97648;-79
2023/10/08 22:34:16;;;;;;;5.65;3.53;;;;;;;22.99;57.51;101089.34;10257095;28;96764;-80
2023/10/08 22:39:21;;;;;;;5.63;3.58;;;;;;;22.82;58.08;101087.13;10256847;28;96747;-80
2023/10/08 22:44:29;;;;;;;4.43;3.60;;;;;;;22.77;58.18;101094.59;10257032;28;97175;-80
2023/10/08 22:49:38;;;;;;;4.40;3.47;;;;;;;22.73;59.07;101088.66;10257919;28;97214;-79
2023/10/08 22:54:43;;;;;;;5.60;3.88;;;;;;;22.69;58.24;101088.97;10256896;28;97175;-80
2023/10/08 22:59:49;;;;;;;6.57;3.55;;;;;;;22.72;58.22;101088.75;10256980;28;96644;-80
2023/10/08 23:04:53;;;;;;;5.03;3.28;;;;;;;22.86;57.65;101097.50;10255392;28;97932;-79
2023/10/08 23:10:00;;;;;;;5.68;3.67;;;;;;;22.87;57.71;101093.00;10255895;28;96684;-80
2023/10/08 23:15:05;;;;;;;5.25;3.83;;;;;;;22.88;57.42;101092.88;10256212;28;97257;-79
2023/10/08 23:20:11;;;;;;;7.00;3.40;;;;;;;22.95;56.95;101090.56;10256658;28;97478;-79
2023/10/08 23:25:16;;;;;;;5.30;3.83;;;;;;;22.98;56.83;101082.25;10255927;28;96710;-80
2023/10/08 23:30:26;;;;;;;4.50;3.20;;;;;;;22.84;57.42;101087.84;10255483;28;96707;-79
2023/10/08 23:35:31;;;;;;;5.68;3.80;;;;;;;22.73;57.76;101082.41;10255614;28;97676;-79
2023/10/08 23:40:44;;;;;;;5.25;4.20;;;;;;;22.58;57.91;101073.69;10254153;28;96607;-79
2023/10/08 23:45:56;;;;;;;5.18;3.63;;;;;;;22.42;58.52;101081.19;10255014;28;97553;-79
2023/10/08 23:51:03;;;;;;;4.75;3.53;;;;;;;22.21;59.08;101078.28;10255975;28;97481;-80
2023/10/08 23:56:10;;;;;;;6.55;4.03;;;;;;;22.11;59.57;101081.78;10253800;28;96634;-79
